createdAt,value
2023-02-27T00:01:41.444Z,98782.00
2023-02-27T00:04:08.187Z,98783.59
2023-02-27T00:06:34.771Z,98782.81
2023-02-27T00:09:01.410Z,98778.13
2023-02-27T00:11:28.446Z,98784.44
2023-02-27T00:13:55.332Z,98794.72
2023-02-27T00:16:22.118Z,98791.16
2023-02-27T00:18:48.716Z,98794.72
2023-02-27T00:21:15.337Z,98792.25
2023-02-27T00:23:41.935Z,98804.25
2023-02-27T00:26:08.531Z,98805.69
2023-02-27T00:28:35.165Z,98802.06
2023-02-27T00:31:01.962Z,98801.41
2023-02-27T00:33:28.593Z,98802.38
2023-02-27T00:35:58.115Z,98797.97
2023-02-27T00:38:24.938Z,98806.63
2023-02-27T00:40:51.541Z,98809.53
2023-02-27T00:43:18.154Z,98810.50
2023-02-27T00:45:44.725Z,98813.13
2023-02-27T00:48:11.430Z,98818.19
2023-02-27T00:50:38.292Z,98817.34
2023-02-27T00:53:05.181Z,98814.09
2023-02-27T00:55:31.964Z,98813.28
2023-02-27T00:57:58.583Z,98821.75
2023-02-27T01:00:25.392Z,98819.94
2023-02-27T01:02:52.262Z,98818.84
2023-02-27T01:05:19.214Z,98815.56
2023-02-27T01:07:45.810Z,98815.41
2023-02-27T01:10:12.926Z,98817.06
2023-02-27T01:12:40.315Z,98812.13
2023-02-27T01:15:08.314Z,98809.53
2023-02-27T01:17:34.913Z,98814.75
2023-02-27T01:20:01.542Z,98815.72
2023-02-27T01:22:28.130Z,98814.41
2023-02-27T01:24:54.837Z,98810.66
2023-02-27T01:27:21.443Z,98821.91
2023-02-27T01:29:48.005Z,98813.78
2023-02-27T01:32:14.667Z,98816.09
2023-02-27T01:34:41.417Z,98815.41
2023-02-27T01:37:08.122Z,98820.78
2023-02-27T01:39:34.780Z,98818.19
2023-02-27T01:42:01.451Z,98824.19
2023-02-27T01:44:30.468Z,98818.34
2023-02-27T01:46:57.396Z,98821.91
2023-02-27T01:49:29.488Z,98822.56
2023-02-27T01:52:03.262Z,98822.56
2023-02-27T01:54:32.435Z,98819.28
2023-02-27T01:56:59.298Z,98817.50
2023-02-27T01:59:25.930Z,98819.94
2023-02-27T02:01:52.945Z,98818.84
2023-02-27T02:04:27.054Z,98821.44
2023-02-27T02:07:00.540Z,98817.06
2023-02-27T02:09:28.932Z,98821.59
2023-02-27T02:11:57.800Z,98819.00
2023-02-27T02:14:24.412Z,98817.34
2023-02-27T02:16:51.583Z,98816.53
2023-02-27T02:19:53.157Z,98816.22
2023-02-27T02:22:35.057Z,98813.78
2023-02-27T02:25:24.536Z,98815.72
2023-02-27T02:28:06.463Z,98813.41
2023-02-27T02:30:34.132Z,98819.44
2023-02-27T02:33:17.018Z,98826.44
2023-02-27T02:36:20.902Z,98818.78
2023-02-27T02:39:12.243Z,98823.81
2023-02-27T02:41:55.275Z,98821.22
2023-02-27T02:44:52.266Z,98817.97
2023-02-27T02:47:19.892Z,98831.00
2023-02-27T02:49:58.037Z,98829.19
2023-02-27T02:52:51.966Z,98833.28
2023-02-27T02:55:34.931Z,98832.50
2023-02-27T02:58:12.656Z,98837.69
2023-02-27T03:00:46.732Z,98837.97
2023-02-27T03:03:21.611Z,98842.38
2023-02-27T03:05:55.766Z,98842.22
2023-02-27T03:08:28.809Z,98845.16
2023-02-27T03:10:57.901Z,98844.03
2023-02-27T03:13:29.391Z,98849.53
2023-02-27T03:16:07.929Z,98845.00
2023-02-27T03:18:41.326Z,98852.81
2023-02-27T03:21:13.632Z,98858.97
2023-02-27T03:23:45.639Z,98863.38
2023-02-27T03:26:17.397Z,98866.00
2023-02-27T03:28:56.068Z,98863.38
2023-02-27T03:31:31.751Z,98863.25
2023-02-27T03:34:05.676Z,98866.00
2023-02-27T03:36:46.112Z,98864.34
2023-02-27T03:39:37.804Z,98861.91
2023-02-27T03:42:26.526Z,98866.31
2023-02-27T03:44:53.142Z,98875.25
2023-02-27T03:47:20.188Z,98868.22
2023-02-27T03:49:47.057Z,98871.63
2023-02-27T03:52:13.744Z,98870.69
2023-02-27T03:55:00.976Z,98876.72
2023-02-27T03:57:28.415Z,98880.94
2023-02-27T03:59:55.414Z,98883.06
2023-02-27T04:02:23.124Z,98889.22
2023-02-27T04:04:49.858Z,98885.78
2023-02-27T04:07:32.076Z,98889.22
2023-02-27T04:10:13.862Z,98895.41
2023-02-27T04:12:56.742Z,98891.69
2023-02-27T04:15:42.758Z,98895.09
2023-02-27T04:18:24.692Z,98894.97
2023-02-27T04:20:58.871Z,98890.88
2023-02-27T04:23:39.992Z,98888.53
2023-02-27T04:26:22.083Z,98897.06
2023-02-27T04:29:03.565Z,98891.53
2023-02-27T04:31:30.474Z,98891.84
2023-02-27T04:34:05.839Z,98893.09
2023-02-27T04:36:52.109Z,98910.22
2023-02-27T04:39:24.598Z,98898.97
2023-02-27T04:41:57.584Z,98902.25
2023-02-27T04:44:26.141Z,98905.03
2023-02-27T04:46:56.103Z,98899.81
2023-02-27T04:49:29.348Z,98900.63
2023-02-27T04:52:10.457Z,98909.41
2023-02-27T04:54:52.518Z,98902.53
2023-02-27T04:57:27.521Z,98905.13
2023-02-27T04:59:55.693Z,98905.81
2023-02-27T05:02:28.180Z,98908.13
2023-02-27T05:05:00.001Z,98912.97
2023-02-27T05:07:39.398Z,98916.81
2023-02-27T05:10:12.599Z,98920.41
2023-02-27T05:12:47.580Z,98911.09
2023-02-27T05:15:24.443Z,98914.00
2023-02-27T05:18:08.479Z,98910.56
2023-02-27T05:20:50.565Z,98914.44
2023-02-27T05:23:29.162Z,98909.22
2023-02-27T05:26:01.448Z,98922.25
2023-02-27T05:28:34.953Z,98915.53
2023-02-27T05:31:09.916Z,98916.81
2023-02-27T05:33:43.419Z,98923.78
2023-02-27T05:36:22.100Z,98919.91
2023-02-27T05:38:53.204Z,98920.91
2023-02-27T05:41:27.630Z,98926.13
2023-02-27T05:44:01.356Z,98933.09
2023-02-27T05:46:33.239Z,98924.63
2023-02-27T05:49:05.617Z,98935.19
2023-02-27T05:51:36.768Z,98939.16
2023-02-27T05:54:10.111Z,98933.16
2023-02-27T05:56:38.479Z,98930.41
2023-02-27T05:59:15.243Z,98941.63
2023-02-27T06:01:41.986Z,98940.00
2023-02-27T06:04:08.680Z,98950.28
2023-02-27T06:06:37.180Z,98950.13
2023-02-27T06:09:03.908Z,98958.91
2023-02-27T06:11:30.484Z,98951.25
2023-02-27T06:13:57.032Z,98951.09
2023-02-27T06:16:23.686Z,98956.31
2023-02-27T06:18:50.332Z,98963.59
2023-02-27T06:21:16.942Z,98968.53
2023-02-27T06:23:43.537Z,98963.59
2023-02-27T06:26:14.388Z,98970.28
2023-02-27T06:28:42.309Z,98974.84
2023-02-27T06:31:08.971Z,98977.13
2023-02-27T06:33:35.627Z,98978.50
2023-02-27T06:36:02.269Z,98980.72
2023-02-27T06:38:28.834Z,98979.75
2023-02-27T06:40:58.984Z,98981.09
2023-02-27T06:43:25.782Z,98987.41
2023-02-27T06:45:54.691Z,98977.84
2023-02-27T06:48:21.344Z,98990.47
2023-02-27T06:50:53.662Z,98988.53
2023-02-27T06:53:20.643Z,98996.22
2023-02-27T06:55:47.249Z,98994.13
2023-02-27T06:58:14.283Z,98992.34
2023-02-27T07:00:40.917Z,98996.47
2023-02-27T07:03:07.546Z,99000.69
2023-02-27T07:05:34.153Z,99007.41
2023-02-27T07:08:01.051Z,98999.72
2023-02-27T07:10:27.643Z,99003.03
2023-02-27T07:12:55.175Z,99006.19
2023-02-27T07:15:22.547Z,99007.78
2023-02-27T07:17:49.151Z,99002.97
2023-02-27T07:20:15.782Z,99013.41
2023-02-27T07:22:42.697Z,99014.50
2023-02-27T07:25:10.417Z,99011.63
2023-02-27T07:27:37.035Z,99010.38
2023-02-27T07:30:07.641Z,99013.13
2023-02-27T07:32:34.234Z,99018.19
2023-02-27T07:35:00.808Z,99017.91
2023-02-27T07:37:28.229Z,99018.72
2023-02-27T07:39:54.871Z,99020.22
2023-02-27T07:42:21.702Z,99018.28
2023-02-27T07:44:48.300Z,99019.94
2023-02-27T07:47:14.914Z,99018.09
2023-02-27T07:49:41.504Z,99024.81
2023-02-27T07:52:08.343Z,99030.84
2023-02-27T07:54:37.555Z,99026.31
2023-02-27T07:57:05.480Z,99024.38
2023-02-27T07:59:32.312Z,99027.94
2023-02-27T08:01:58.876Z,99033.31
2023-02-27T08:04:25.564Z,99030.84
2023-02-27T08:06:52.160Z,99033.31
2023-02-27T08:09:18.836Z,99036.72
2023-02-27T08:11:47.257Z,99042.78
2023-02-27T08:14:15.459Z,99036.31
2023-02-27T08:16:42.077Z,99041.53
2023-02-27T08:19:08.686Z,99047.13
2023-02-27T08:21:35.270Z,99042.88
2023-02-27T08:24:02.159Z,99041.22
2023-02-27T08:26:29.096Z,99043.41
2023-02-27T08:28:55.884Z,99033.63
2023-02-27T08:31:22.565Z,99038.59
2023-02-27T08:33:55.263Z,99041.03
2023-02-27T08:36:24.605Z,99038.81
2023-02-27T08:38:51.217Z,99040.31
2023-02-27T08:41:17.851Z,99042.78
2023-02-27T08:43:44.444Z,99043.97
2023-02-27T08:46:11.356Z,99043.97
2023-02-27T08:48:37.960Z,99046.28
2023-02-27T08:51:04.614Z,99039.78
2023-02-27T08:53:31.202Z,99044.88
2023-02-27T08:55:57.770Z,99049.66
2023-02-27T08:58:24.367Z,99055.25
2023-02-27T09:00:50.978Z,99051.53
2023-02-27T09:03:17.597Z,99047.44
2023-02-27T09:05:44.186Z,99048.25
2023-02-27T09:08:10.802Z,99060.56
2023-02-27T09:10:37.474Z,99061.38
2023-02-27T09:13:04.580Z,99059.28
2023-02-27T09:15:32.574Z,99058.56
2023-02-27T09:18:03.109Z,99067.25
2023-02-27T09:20:31.727Z,99066.59
2023-02-27T09:22:59.308Z,99067.03
2023-02-27T09:25:26.767Z,99072.09
2023-02-27T09:27:53.377Z,99061.00
2023-02-27T09:30:20.411Z,99068.53
2023-02-27T09:32:47.076Z,99073.47
2023-02-27T09:35:15.833Z,99075.25
2023-02-27T09:37:44.053Z,99081.81
2023-02-27T09:40:22.780Z,99078.91
2023-02-27T09:42:50.466Z,99084.50
2023-02-27T09:45:23.797Z,99087.94
2023-02-27T09:47:55.768Z,99083.59
2023-02-27T09:50:38.535Z,99085.00
2023-02-27T09:53:12.156Z,99085.75
2023-02-27T09:55:41.612Z,99086.44
2023-02-27T09:58:17.637Z,99085.38
2023-02-27T10:00:49.044Z,99086.28
2023-02-27T10:03:35.200Z,99094.31
2023-02-27T10:06:32.368Z,99084.91
2023-02-27T10:09:19.262Z,99088.78
2023-02-27T10:11:54.090Z,99083.03
2023-02-27T10:14:36.066Z,99098.81
2023-02-27T10:17:06.474Z,99093.63
2023-02-27T10:19:37.697Z,99093.00
2023-02-27T10:22:11.405Z,99088.69
2023-02-27T10:24:44.851Z,99100.34
2023-02-27T10:27:19.204Z,99091.47
2023-02-27T10:29:46.616Z,99095.22
2023-02-27T10:32:31.796Z,99093.72
2023-02-27T10:35:17.687Z,99091.41
2023-02-27T10:37:50.907Z,99086.50
2023-02-27T10:40:20.498Z,99082.41
2023-02-27T10:42:51.142Z,99092.88
2023-02-27T10:45:17.890Z,99092.38
2023-02-27T10:47:45.253Z,99096.28
2023-02-27T10:50:28.756Z,99088.13
2023-02-27T10:52:59.873Z,99089.94
2023-02-27T10:55:38.674Z,99090.25
2023-02-27T10:58:06.158Z,99091.22
2023-02-27T11:00:41.066Z,99087.63
2023-02-27T11:03:16.914Z,99088.09
2023-02-27T11:05:52.500Z,99081.88
2023-02-27T11:08:24.305Z,99081.41
2023-02-27T11:10:57.771Z,99075.00
2023-02-27T11:13:27.879Z,99083.81
2023-02-27T11:16:12.989Z,99087.13
2023-02-27T11:18:43.527Z,99079.13
2023-02-27T11:21:10.078Z,99078.31
2023-02-27T11:23:36.901Z,99069.47
2023-02-27T11:26:22.441Z,99063.59
2023-02-27T11:29:08.382Z,99062.91
2023-02-27T11:31:39.540Z,99069.25
2023-02-27T11:34:08.267Z,99072.88
2023-02-27T11:36:41.399Z,99074.81
2023-02-27T11:39:22.239Z,99064.50
2023-02-27T11:41:49.109Z,99070.53
2023-02-27T11:44:27.393Z,99061.53
2023-02-27T11:47:13.731Z,99058.91
2023-02-27T11:50:06.462Z,99069.22
2023-02-27T11:52:38.825Z,99062.06
2023-02-27T11:55:10.343Z,99066.97
2023-02-27T11:57:41.481Z,99070.50
2023-02-27T12:00:21.190Z,99061.16
2023-02-27T12:03:18.389Z,99064.16
2023-02-27T12:05:50.432Z,99060.88
2023-02-27T12:08:42.710Z,99060.03
2023-02-27T12:11:28.263Z,99052.03
2023-02-27T12:14:18.055Z,99046.00
2023-02-27T12:16:59.035Z,99051.75
2023-02-27T12:19:33.505Z,99055.19
2023-02-27T12:22:10.918Z,99049.44
2023-02-27T12:24:45.846Z,99058.13
2023-02-27T12:27:18.496Z,99051.88
2023-02-27T12:29:53.626Z,99051.59
2023-02-27T12:32:42.861Z,99051.44
2023-02-27T12:35:23.406Z,99047.03
2023-02-27T12:37:51.096Z,99049.44
2023-02-27T12:40:19.452Z,99050.72
2023-02-27T12:43:11.121Z,99048.25
2023-02-27T12:46:01.946Z,99049.91
2023-02-27T12:48:45.170Z,99045.81
2023-02-27T12:51:31.568Z,99039.91
2023-02-27T12:54:15.956Z,99045.13
2023-02-27T12:57:02.337Z,99042.66
2023-02-27T13:00:07.867Z,99042.66
2023-02-27T13:02:48.779Z,99048.72
2023-02-27T13:05:45.967Z,99057.38
2023-02-27T13:08:32.842Z,99042.81
2023-02-27T13:11:05.177Z,99050.66
2023-02-27T13:13:43.982Z,99052.75
2023-02-27T13:16:26.282Z,99045.44
2023-02-27T13:19:04.948Z,99048.06
2023-02-27T13:21:38.332Z,99042.97
2023-02-27T13:24:31.479Z,99051.94
2023-02-27T13:27:16.003Z,99054.25
2023-02-27T13:29:48.680Z,99057.47
2023-02-27T13:32:16.401Z,99052.91
2023-02-27T13:34:49.241Z,99054.72
2023-02-27T13:37:16.108Z,99048.50
2023-02-27T13:39:56.416Z,99052.59
2023-02-27T13:42:55.540Z,99045.59
2023-02-27T13:45:52.677Z,99054.03
2023-02-27T13:48:34.463Z,99061.34
2023-02-27T13:51:01.557Z,99055.84
2023-02-27T13:53:28.788Z,99063.47
2023-02-27T13:56:17.554Z,99053.66
2023-02-27T13:58:45.077Z,99055.47
2023-02-27T14:01:19.362Z,99061.06
2023-02-27T14:03:54.497Z,99059.41
2023-02-27T14:06:23.313Z,99060.22
2023-02-27T14:08:57.570Z,99055.84
2023-02-27T14:11:39.719Z,99057.00
2023-02-27T14:14:09.121Z,99053.88
2023-02-27T14:16:54.085Z,99057.47
2023-02-27T14:19:22.707Z,99051.56
2023-02-27T14:21:54.416Z,99055.38
2023-02-27T14:24:27.301Z,99056.81
2023-02-27T14:26:54.999Z,99057.59
2023-02-27T14:29:25.794Z,99051.22
2023-02-27T14:31:54.256Z,99053.22
2023-02-27T14:34:22.168Z,99048.44
2023-02-27T14:36:54.083Z,99058.72
2023-02-27T14:39:32.075Z,99060.69
2023-02-27T14:42:19.535Z,99065.75
2023-02-27T14:44:51.613Z,99063.63
2023-02-27T14:47:23.254Z,99065.38
2023-02-27T14:49:49.913Z,99065.22
2023-02-27T14:52:20.193Z,99066.88
2023-02-27T14:54:48.482Z,99072.69
2023-02-27T14:57:26.792Z,99076.97
2023-02-27T14:59:54.874Z,99074.34
2023-02-27T15:02:26.201Z,99075.63
2023-02-27T15:05:13.639Z,99083.44
2023-02-27T15:07:40.542Z,99084.41
2023-02-27T15:10:10.609Z,99080.19
2023-02-27T15:12:39.333Z,99083.16
2023-02-27T15:15:09.059Z,99087.72
2023-02-27T15:17:40.996Z,99083.44
2023-02-27T15:20:24.956Z,99087.03
2023-02-27T15:22:51.704Z,99083.75
2023-02-27T15:25:37.484Z,99086.97
2023-02-27T15:28:15.789Z,99089.41
2023-02-27T15:30:42.550Z,99086.31
2023-02-27T15:33:16.197Z,99088.78
2023-02-27T15:35:45.291Z,99095.25
2023-02-27T15:38:33.378Z,99091.81
2023-02-27T15:41:01.837Z,99095.38
2023-02-27T15:43:30.264Z,99093.78
2023-02-27T15:45:58.362Z,99099.94
2023-02-27T15:48:25.965Z,99098.16
2023-02-27T15:50:57.080Z,99101.59
2023-02-27T15:53:27.030Z,99100.59
2023-02-27T15:56:00.852Z,99099.66
2023-02-27T15:58:31.811Z,99107.47
2023-02-27T16:01:01.730Z,99112.69
2023-02-27T16:03:34.243Z,99112.44
2023-02-27T16:06:01.314Z,99115.47
2023-02-27T16:08:31.181Z,99112.69
2023-02-27T16:10:58.222Z,99114.66
2023-02-27T16:13:25.830Z,99117.53
2023-02-27T16:16:23.061Z,99121.25
2023-02-27T16:18:54.014Z,99123.22
2023-02-27T16:21:23.407Z,99124.72
2023-02-27T16:23:50.433Z,99124.56
2023-02-27T16:26:37.054Z,99132.97
2023-02-27T16:29:19.737Z,99129.88
2023-02-27T16:31:49.392Z,99148.25
2023-02-27T16:34:26.122Z,99145.38
2023-02-27T16:36:58.691Z,99143.88
2023-02-27T16:39:26.142Z,99152.66
2023-02-27T16:41:55.295Z,99151.25
2023-02-27T16:44:23.767Z,99158.28
2023-02-27T16:46:51.758Z,99147.28
2023-02-27T16:49:24.136Z,99157.19
2023-02-27T16:51:51.655Z,99154.88
2023-02-27T16:54:19.004Z,99162.06
2023-02-27T16:56:47.186Z,99153.53
2023-02-27T16:59:33.554Z,99163.44
2023-02-27T17:02:02.752Z,99168.50
2023-02-27T17:04:30.168Z,99171.44
2023-02-27T17:06:59.298Z,99171.03
2023-02-27T17:09:28.215Z,99175.28
2023-02-27T17:11:55.980Z,99177.09
2023-02-27T17:14:23.485Z,99180.38
2023-02-27T17:16:50.342Z,99177.47
2023-02-27T17:19:17.164Z,99180.22
2023-02-27T17:21:43.776Z,99186.53
2023-02-27T17:24:10.381Z,99181.63
2023-02-27T17:26:37.019Z,99188.63
2023-02-27T17:29:05.233Z,99195.34
2023-02-27T17:31:32.004Z,99192.88
2023-02-27T17:33:58.690Z,99195.34
2023-02-27T17:36:26.236Z,99205.50
2023-02-27T17:38:56.087Z,99201.25
2023-02-27T17:41:22.909Z,99206.31
2023-02-27T17:43:52.176Z,99208.25
2023-02-27T17:46:18.854Z,99204.28
2023-02-27T17:48:45.518Z,99207.03
2023-02-27T17:51:14.451Z,99204.16
2023-02-27T17:53:41.379Z,99215.69
2023-02-27T17:56:09.217Z,99213.38
2023-02-27T17:58:35.894Z,99214.03
2023-02-27T18:01:06.258Z,99218.59
2023-02-27T18:03:33.164Z,99216.66
2023-02-27T18:06:00.252Z,99214.50
2023-02-27T18:08:28.155Z,99213.38
2023-02-27T18:10:55.479Z,99214.34
2023-02-27T18:13:22.149Z,99215.00
2023-02-27T18:15:50.035Z,99218.59
2023-02-27T18:18:16.726Z,99216.81
2023-02-27T18:20:43.374Z,99220.50
2023-02-27T18:23:10.280Z,99225.72
2023-02-27T18:25:37.379Z,99226.44
2023-02-27T18:28:05.354Z,99230.66
2023-02-27T18:30:36.849Z,99227.53
2023-02-27T18:33:03.723Z,99228.50
2023-02-27T18:35:30.382Z,99230.16
2023-02-27T18:37:57.111Z,99232.88
2023-02-27T18:40:25.042Z,99229.44
2023-02-27T18:42:53.408Z,99236.59
2023-02-27T18:45:20.290Z,99229.91
2023-02-27T18:47:47.120Z,99235.38
2023-02-27T18:50:13.927Z,99239.94
2023-02-27T18:52:40.550Z,99246.75
2023-02-27T18:55:07.653Z,99247.75
2023-02-27T18:57:34.730Z,99243.19
2023-02-27T19:00:01.731Z,99240.19
2023-02-27T19:02:28.477Z,99247.34
2023-02-27T19:04:55.125Z,99244.03
2023-02-27T19:07:23.387Z,99238.31
2023-02-27T19:09:50.049Z,99242.94
2023-02-27T19:12:17.435Z,99241.28
2023-02-27T19:14:44.111Z,99254.47
2023-02-27T19:17:10.799Z,99256.44
2023-02-27T19:19:40.681Z,99247.09
2023-02-27T19:22:07.394Z,99250.81
2023-02-27T19:24:34.011Z,99255.06
2023-02-27T19:27:00.983Z,99265.50
2023-02-27T19:29:27.615Z,99258.78
2023-02-27T19:31:54.433Z,99256.28
2023-02-27T19:34:21.195Z,99257.53
2023-02-27T19:36:47.963Z,99255.31
2023-02-27T19:39:14.684Z,99261.50
2023-02-27T19:41:41.337Z,99255.47
2023-02-27T19:44:08.478Z,99258.22
2023-02-27T19:46:35.678Z,99255.06
2023-02-27T19:49:05.518Z,99256.03
2023-02-27T19:51:32.403Z,99260.44
2023-02-27T19:53:59.099Z,99263.03
2023-02-27T19:56:28.141Z,99269.91
2023-02-27T19:58:55.079Z,99270.72
2023-02-27T20:01:24.326Z,99264.69
2023-02-27T20:03:51.104Z,99267.84
2023-02-27T20:06:20.272Z,99272.09
2023-02-27T20:08:47.011Z,99276.34
2023-02-27T20:11:15.641Z,99269.50
2023-02-27T20:13:42.229Z,99271.81
2023-02-27T20:16:10.382Z,99272.09
2023-02-27T20:18:39.812Z,99271.16
2023-02-27T20:21:10.076Z,99274.56
2023-02-27T20:23:39.809Z,99270.56
2023-02-27T20:26:18.184Z,99272.66
2023-02-27T20:28:45.885Z,99276.91
2023-02-27T20:31:14.276Z,99273.59
2023-02-27T20:33:41.818Z,99271.97
2023-02-27T20:36:10.247Z,99276.50
2023-02-27T20:38:39.177Z,99272.22
2023-02-27T20:41:08.120Z,99269.91
2023-02-27T20:43:35.232Z,99272.66
2023-02-27T20:46:03.860Z,99272.81
2023-02-27T20:48:30.529Z,99263.19
2023-02-27T20:50:57.470Z,99270.19
2023-02-27T20:53:26.242Z,99259.91
2023-02-27T20:55:52.930Z,99263.72
2023-02-27T20:58:19.528Z,99262.22
2023-02-27T21:00:46.119Z,99266.34
2023-02-27T21:03:12.773Z,99256.19
2023-02-27T21:05:46.450Z,99255.53
2023-02-27T21:08:13.090Z,99257.28
2023-02-27T21:10:41.062Z,99265.25
2023-02-27T21:13:07.765Z,99257.28
2023-02-27T21:15:35.964Z,99258.00
2023-02-27T21:18:02.722Z,99253.88
2023-02-27T21:20:29.840Z,99257.72
2023-02-27T21:22:56.544Z,99254.03
2023-02-27T21:25:25.103Z,99255.78
2023-02-27T21:27:51.763Z,99254.69
2023-02-27T21:30:19.061Z,99255.38
2023-02-27T21:32:45.762Z,99257.72
2023-02-27T21:35:12.408Z,99247.56
2023-02-27T21:37:46.697Z,99247.72
2023-02-27T21:40:14.329Z,99245.91
2023-02-27T21:42:42.209Z,99242.59
2023-02-27T21:45:09.739Z,99245.63
2023-02-27T21:47:36.350Z,99237.53
2023-02-27T21:50:03.859Z,99242.75
2023-02-27T21:52:31.616Z,99242.19
2023-02-27T21:54:58.421Z,99238.09
2023-02-27T21:57:25.092Z,99239.88
2023-02-27T21:59:51.726Z,99240.81
2023-02-27T22:02:18.391Z,99240.81
2023-02-27T22:04:45.011Z,99241.81
2023-02-27T22:07:11.675Z,99240.00
2023-02-27T22:09:38.293Z,99240.16
2023-02-27T22:12:05.298Z,99239.31
2023-02-27T22:14:31.902Z,99238.66
2023-02-27T22:16:58.548Z,99233.56
2023-02-27T22:19:25.171Z,99230.13
2023-02-27T22:21:51.864Z,99238.09
2023-02-27T22:24:21.718Z,99229.72
2023-02-27T22:26:49.641Z,99236.44
2023-02-27T22:29:17.142Z,99243.44
2023-02-27T22:31:43.811Z,99235.63
2023-02-27T22:34:13.680Z,99237.00
2023-02-27T22:36:41.767Z,99232.22
2023-02-27T22:39:08.608Z,99232.59
2023-02-27T22:41:38.350Z,99234.53
2023-02-27T22:44:06.829Z,99239.84
2023-02-27T22:46:36.431Z,99228.78
2023-02-27T22:49:08.377Z,99229.31
2023-02-27T22:51:35.499Z,99227.53
2023-02-27T22:54:03.861Z,99225.88
2023-02-27T22:56:31.391Z,99239.72
2023-02-27T22:58:58.752Z,99225.31
2023-02-27T23:01:28.887Z,99227.41
2023-02-27T23:03:59.384Z,99230.81
2023-02-27T23:06:29.401Z,99231.38
2023-02-27T23:08:56.049Z,99224.38
2023-02-27T23:11:23.502Z,99225.75
2023-02-27T23:13:50.370Z,99232.19
2023-02-27T23:16:17.642Z,99226.97
2023-02-27T23:18:47.179Z,99228.06
2023-02-27T23:21:16.927Z,99233.94
2023-02-27T23:23:43.922Z,99234.22
2023-02-27T23:26:10.964Z,99230.81
2023-02-27T23:28:38.053Z,99230.81
2023-02-27T23:31:06.468Z,99229.59
2023-02-27T23:33:33.780Z,99231.91
2023-02-27T23:36:04.471Z,99235.47
2023-02-27T23:38:31.172Z,99230.00
2023-02-27T23:40:57.894Z,99231.91
2023-02-27T23:43:24.574Z,99220.53
2023-02-27T23:45:51.220Z,99212.59
2023-02-27T23:48:17.928Z,99208.59
2023-02-27T23:50:45.050Z,99215.47
2023-02-27T23:53:13.620Z,99216.41
2023-02-27T23:55:41.282Z,99207.22
2023-02-27T23:58:11.129Z,99199.97
